Time;durP1;ratioP1;P1;durP2;ratioP2;P2;SDS_P1;SDS_P2;PMS_P1;PMS_P2;Temp;Humidity;BMP_temperature;BMP_pressure;BME280_temperature;BME280_humidity;BME280_pressure;Samples;Min_cycle;Max_cycle;Signal;HPM_P1;HPM_P2
2021/08/05 00:00:33;;;;;;;10.72;5.70;;;;;;;18.74;86.72;99813.55;3031542;78;20927;-62
2021/08/05 00:04:36;;;;;;;6.80;5.08;;;;;;;18.74;86.20;99811.37;3031296;78;21027;-62
2021/08/05 00:08:38;;;;;;;8.20;5.62;;;;;;;18.67;86.22;99812.16;3031583;77;21074;-60
2021/08/05 00:12:41;;;;;;;6.90;4.92;;;;;;;18.57;85.44;99807.58;3031474;78;20944;-63
2021/08/05 00:16:43;;;;;;;6.60;5.90;;;;;;;18.44;86.02;99812.80;3031405;78;21007;-63
2021/08/05 00:20:49;;;;;;;8.58;5.58;;;;;;;18.40;86.22;99809.67;3031450;78;20991;-61
2021/08/05 00:24:50;;;;;;;7.58;5.85;;;;;;;18.43;86.17;99810.63;3031490;78;20971;-62
2021/08/05 00:28:54;;;;;;;5.62;4.80;;;;;;;18.40;86.29;99811.02;3031298;78;20988;-63
2021/08/05 00:32:58;;;;;;;6.65;4.90;;;;;;;18.38;86.16;99812.53;3030658;78;21505;-59
2021/08/05 00:37:01;;;;;;;9.43;5.50;;;;;;;18.42;85.55;99811.66;3031224;78;20983;-63
2021/08/05 00:41:03;;;;;;;8.75;5.15;;;;;;;18.27;85.83;99808.97;3034074;78;21003;-62
2021/08/05 00:45:07;;;;;;;6.35;5.17;;;;;;;18.27;86.28;99802.23;3035441;78;21006;-63
2021/08/05 00:49:11;;;;;;;6.12;4.42;;;;;;;18.21;86.34;99794.92;3035340;78;20994;-64
2021/08/05 00:53:15;;;;;;;7.35;5.50;;;;;;;18.25;86.68;99796.21;3042409;78;20963;-62
2021/08/05 00:57:18;;;;;;;9.28;5.78;;;;;;;18.21;86.51;99793.58;3035489;78;20943;-61
2021/08/05 01:01:24;;;;;;;5.90;4.55;;;;;;;18.19;87.10;99789.75;3035481;78;20911;-62
2021/08/05 01:05:30;;;;;;;8.38;5.95;;;;;;;18.26;86.90;99781.23;3035625;78;20967;-62
2021/08/05 01:09:52;;;;;;;13.00;5.75;;;;;;;18.30;86.69;99773.63;3035215;78;21061;-61
2021/08/05 01:13:58;;;;;;;11.55;6.90;;;;;;;18.34;86.36;99770.87;3035366;78;20961;-63
2021/08/05 01:18:13;;;;;;;6.90;4.70;;;;;;;18.41;86.51;99768.25;3035444;78;20994;-64
2021/08/05 01:22:54;;;;;;;7.85;5.25;;;;;;;18.35;85.84;99768.50;3034350;78;21057;-60
2021/08/05 01:27:04;;;;;;;7.12;6.12;;;;;;;18.33;86.23;99765.16;3034877;78;20947;-62
2021/08/05 01:31:07;;;;;;;9.43;7.53;;;;;;;18.40;87.09;99770.09;3035229;78;20960;-63
2021/08/05 01:35:13;;;;;;;8.25;7.22;;;;;;;18.37;87.24;99761.56;3035363;78;20951;-61
2021/08/05 01:39:17;;;;;;;12.70;8.53;;;;;;;18.38;87.85;99761.38;3034300;78;20935;-63
2021/08/05 01:43:22;;;;;;;9.28;7.28;;;;;;;18.38;87.99;99764.08;3031121;78;20983;-63
2021/08/05 01:47:27;;;;;;;11.10;6.85;;;;;;;18.39;87.92;99762.23;3031210;78;20983;-64
2021/08/05 01:51:31;;;;;;;7.22;5.95;;;;;;;18.39;87.90;99758.19;3031176;78;20963;-61
2021/08/05 01:55:33;;;;;;;6.55;4.67;;;;;;;18.42;87.21;99753.77;3031240;78;20951;-62
2021/08/05 01:59:36;;;;;;;5.75;4.25;;;;;;;18.42;86.50;99751.08;3031208;78;20999;-64
2021/08/05 02:03:39;;;;;;;6.40;5.45;;;;;;;18.40;85.90;99751.78;3031331;78;20959;-65
2021/08/05 02:08:05;;;;;;;8.88;5.00;;;;;;;18.37;85.65;99748.94;3031256;77;20987;-63
2021/08/05 02:12:07;;;;;;;9.68;4.87;;;;;;;18.34;85.44;99754.72;3030313;78;21043;-63
2021/08/05 02:16:17;;;;;;;7.72;6.83;;;;;;;18.23;85.44;99753.34;3031401;78;21237;-62
2021/08/05 02:20:19;;;;;;;8.50;6.40;;;;;;;18.03;87.15;99758.48;3030986;78;20951;-62
2021/08/05 02:24:22;;;;;;;10.93;5.97;;;;;;;18.03;88.82;99749.06;3030780;78;21011;-62
2021/08/05 02:28:28;;;;;;;6.87;5.22;;;;;;;18.09;89.08;99745.64;3031237;78;20960;-65
2021/08/05 02:32:30;;;;;;;;;;;;;;;18.18;89.03;99746.36;3033890;78;21054;-62
2021/08/05 02:36:33;;;;;;;10.63;7.47;;;;;;;18.15;88.04;99744.55;3031245;78;20152;-63
2021/08/05 02:40:37;;;;;;;12.55;7.75;;;;;;;17.93;88.58;99736.39;3035954;77;20995;-61
2021/08/05 02:44:39;;;;;;;11.57;8.50;;;;;;;17.76;89.85;99732.55;3040780;78;21029;-63
2021/08/05 02:48:41;;;;;;;9.68;6.62;;;;;;;17.73;90.03;99736.12;3040975;78;20986;-61
2021/08/05 02:52:45;;;;;;;6.67;5.97;;;;;;;17.66;89.86;99734.19;3040661;78;20974;-63
2021/08/05 02:56:50;;;;;;;9.75;7.17;;;;;;;17.52;90.40;99730.97;3040758;78;20955;-62
2021/08/05 03:00:55;;;;;;;11.12;6.72;;;;;;;17.33;90.87;99722.95;3040636;78;20962;-63
2021/08/05 03:04:56;;;;;;;10.85;8.08;;;;;;;17.25;91.32;99726.56;3040488;78;20947;-63
2021/08/05 03:09:01;;;;;;;10.10;7.28;;;;;;;17.19;91.63;99732.16;3040695;78;21015;-62
2021/08/05 03:13:03;;;;;;;11.85;6.00;;;;;;;17.21;91.84;99731.45;3020375;77;20976;-61
2021/08/05 03:17:06;;;;;;;15.60;9.15;;;;;;;17.26;90.39;99722.86;2962388;80;21014;-62
2021/08/05 03:21:11;;;;;;;17.55;12.90;;;;;;;17.30;90.67;99721.98;2953995;79;21019;-62
2021/08/05 03:25:15;;;;;;;21.10;12.43;;;;;;;17.45;91.20;99720.64;2953500;80;20963;-62
2021/08/05 03:29:19;;;;;;;17.75;11.30;;;;;;;17.56;90.68;99722.36;2932157;80;20990;-61
2021/08/05 03:33:21;;;;;;;8.05;5.72;;;;;;;17.66;89.49;99723.92;2953688;80;21053;-63
2021/08/05 03:37:25;;;;;;;9.08;6.83;;;;;;;17.65;89.13;99719.56;2953075;80;21007;-64
2021/08/05 03:41:28;;;;;;;13.43;7.95;;;;;;;17.68;89.42;99720.53;2956636;79;20979;-64
2021/08/05 03:45:31;;;;;;;15.30;7.37;;;;;;;17.69;88.56;99723.05;2958030;79;21037;-64
2021/08/05 03:49:34;;;;;;;10.15;7.45;;;;;;;17.65;88.80;99712.84;2895987;82;21025;-65
2021/08/05 03:53:37;;;;;;;24.50;7.70;;;;;;;17.65;89.01;99714.19;2894172;82;20999;-63
2021/08/05 03:57:41;;;;;;;13.40;7.20;;;;;;;17.66;89.30;99718.54;2854190;82;21517;-65
2021/08/05 04:01:44;;;;;;;12.58;7.65;;;;;;;17.64;89.47;99703.11;2847122;83;20992;-63
2021/08/05 04:05:45;;;;;;;11.70;7.12;;;;;;;17.66;90.04;99706.44;2847475;83;20996;-61
2021/08/05 04:09:48;;;;;;;11.12;8.88;;;;;;;17.74;89.92;99700.12;2847497;83;21071;-65
2021/08/05 04:13:52;;;;;;;10.03;7.25;;;;;;;17.71;90.04;99705.39;2847460;83;21030;-65
2021/08/05 04:17:54;;;;;;;17.15;10.53;;;;;;;17.73;90.42;99704.69;2847598;83;20984;-62
2021/08/05 04:21:56;;;;;;;13.28;9.53;;;;;;;17.88;91.32;99705.16;2843597;83;21028;-61
2021/08/05 04:25:58;;;;;;;13.20;9.68;;;;;;;17.99;91.48;99703.34;2860813;81;20964;-63
2021/08/05 04:30:04;;;;;;;11.53;8.98;;;;;;;18.11;91.17;99701.88;2860877;83;21584;-62
2021/08/05 04:34:06;;;;;;;13.03;7.78;;;;;;;18.16;90.36;99692.39;2861020;83;21023;-63
2021/08/05 04:38:14;;;;;;;9.58;8.10;;;;;;;18.21;91.15;99688.61;2930744;81;20967;-64
2021/08/05 04:42:17;;;;;;;14.30;8.23;;;;;;;18.33;91.15;99691.13;2930275;80;21050;-62
2021/08/05 04:46:19;;;;;;;11.43;8.53;;;;;;;18.49;91.14;99689.22;2930678;80;21508;-65
2021/08/05 04:50:26;;;;;;;18.60;9.48;;;;;;;18.60;90.51;99684.64;2906865;81;21003;-62
2021/08/05 04:54:27;;;;;;;;;;;;;;;18.61;89.79;99676.88;2933244;80;20987;-62
2021/08/05 04:58:29;;;;;;;10.85;9.50;;;;;;;18.62;89.61;99679.89;2873889;83;20138;-62
2021/08/05 05:02:33;;;;;;;11.08;8.60;;;;;;;18.62;89.66;99670.99;2847887;83;21055;-62
2021/08/05 05:06:37;;;;;;;9.20;8.25;;;;;;;18.53;89.41;99675.15;2847450;82;21008;-61
2021/08/05 05:10:38;;;;;;;14.78;9.70;;;;;;;18.53;90.87;99675.67;2847493;83;21035;-63
2021/08/05 05:14:40;;;;;;;10.98;7.62;;;;;;;18.64;91.48;99673.79;2835228;83;21051;-63
2021/08/05 05:18:47;;;;;;;14.13;7.87;;;;;;;18.75;91.83;99672.43;2848191;83;20961;-63
2021/08/05 05:22:49;;;;;;;10.53;8.83;;;;;;;18.93;91.78;99666.58;2848203;83;21040;-62
2021/08/05 05:26:52;;;;;;;10.05;6.75;;;;;;;19.15;91.81;99664.35;2984675;79;21540;-62
2021/08/05 05:30:55;;;;;;;10.10;8.20;;;;;;;19.36;90.76;99660.26;2957497;80;20984;-63
2021/08/05 05:35:00;;;;;;;10.43;7.35;;;;;;;19.48;90.85;99661.88;3096968;76;20999;-64
2021/08/05 05:39:03;;;;;;;13.00;7.20;;;;;;;19.62;90.17;99653.82;2957921;79;21012;-64
2021/08/05 05:43:05;;;;;;;9.10;7.50;;;;;;;19.75;89.55;99662.48;3106558;76;20964;-62
2021/08/05 05:47:07;;;;;;;8.80;7.03;;;;;;;19.88;88.66;99663.08;2955327;79;20964;-62
2021/08/05 05:51:10;;;;;;;10.90;7.45;;;;;;;19.95;87.53;99662.59;2981677;79;21494;-65
2021/08/05 05:55:14;;;;;;;8.30;7.50;;;;;;;19.90;87.42;99665.05;3087729;77;20988;-63
2021/08/05 05:59:19;;;;;;;16.15;7.97;;;;;;;19.89;87.44;99652.59;2993649;79;21455;-65
2021/08/05 06:03:21;;;;;;;10.65;7.95;;;;;;;19.96;87.83;99655.66;2982030;79;20992;-64
2021/08/05 06:07:24;;;;;;;12.98;7.50;;;;;;;19.83;87.27;99656.92;2941211;79;21024;-62
2021/08/05 06:11:28;;;;;;;9.43;8.30;;;;;;;19.79;88.94;99657.84;3088039;76;20993;-65
2021/08/05 06:15:29;;;;;;;7.12;6.42;;;;;;;19.90;88.12;99657.77;3088366;76;20996;-64
2021/08/05 06:19:32;;;;;;;11.85;8.28;;;;;;;19.94;88.12;99663.10;2941722;79;21015;-62
2021/08/05 06:23:34;;;;;;;13.60;7.60;;;;;;;20.17;88.39;99665.14;2982622;79;21075;-62
2021/08/05 06:27:36;;;;;;;11.30;6.90;;;;;;;20.36;87.23;99663.00;3088605;77;20996;-63
2021/08/05 06:31:38;;;;;;;7.67;6.70;;;;;;;20.45;86.20;99661.47;2941823;80;20936;-63
2021/08/05 06:35:43;;;;;;;9.93;5.80;;;;;;;20.53;85.70;99662.61;2982790;79;21035;-63
2021/08/05 06:39:45;;;;;;;9.23;6.70;;;;;;;20.60;85.66;99648.57;2942182;79;21493;-64
2021/08/05 06:43:48;;;;;;;8.53;6.55;;;;;;;20.64;85.35;99663.35;2982766;79;20961;-64
2021/08/05 06:47:50;;;;;;;8.43;7.53;;;;;;;20.72;84.95;99654.72;2982702;80;20980;-63
2021/08/05 06:51:52;;;;;;;7.85;6.60;;;;;;;20.69;84.30;99660.85;2982995;80;20967;-62
2021/08/05 06:55:57;;;;;;;28.87;9.15;;;;;;;20.68;84.32;99662.39;2941762;79;21008;-62
2021/08/05 06:59:59;;;;;;;8.90;7.30;;;;;;;20.72;83.80;99664.17;2983139;80;20984;-63
2021/08/05 07:04:03;;;;;;;8.50;6.17;;;;;;;20.72;83.46;99662.83;2982522;80;21005;-64
2021/08/05 07:08:06;;;;;;;7.10;5.90;;;;;;;20.68;83.63;99670.00;2983270;79;20965;-63
2021/08/05 07:12:08;;;;;;;8.20;6.50;;;;;;;20.67;83.87;99669.69;3088129;77;20984;-64
2021/08/05 07:16:10;;;;;;;8.25;7.17;;;;;;;20.75;83.89;99663.75;2941408;81;20988;-62
2021/08/05 07:20:19;;;;;;;6.45;5.45;;;;;;;20.76;83.57;99665.41;2983091;79;20965;-65
2021/08/05 07:24:22;;;;;;;7.17;5.72;;;;;;;20.87;84.39;99665.34;2982646;79;21000;-63
2021/08/05 07:28:24;;;;;;;9.53;8.55;;;;;;;20.98;83.73;99668.77;2982811;80;20964;-62
2021/08/05 07:32:27;;;;;;;8.35;7.47;;;;;;;21.01;83.61;99660.73;2982758;80;21020;-64
2021/08/05 07:36:29;;;;;;;7.15;6.45;;;;;;;21.06;82.96;99659.61;2982551;80;20961;-64
2021/08/05 07:40:31;;;;;;;8.65;7.28;;;;;;;20.98;83.53;99656.60;2940552;80;21058;-63
2021/08/05 07:44:33;;;;;;;8.75;7.55;;;;;;;21.04;83.17;99652.23;3041851;78;20944;-63
2021/08/05 07:48:39;;;;;;;9.30;7.42;;;;;;;21.14;83.78;99651.80;3045832;78;20928;-64
2021/08/05 07:52:45;;;;;;;9.55;8.30;;;;;;;21.21;83.06;99653.42;3045862;78;21533;-65
2021/08/05 07:56:49;;;;;;;6.67;5.65;;;;;;;21.26;82.74;99646.88;3046269;78;20992;-63
2021/08/05 08:00:52;;;;;;;7.75;6.78;;;;;;;21.36;83.10;99649.65;3046204;78;20972;-63
2021/08/05 08:04:54;;;;;;;7.30;6.60;;;;;;;21.36;82.22;99646.95;3045909;77;21007;-64
2021/08/05 08:14:33;;;;;;;7.50;6.65;;;;;;;21.52;82.85;99647.83;2941837;81;21008;-66
2021/08/05 08:19:14;;;;;;;9.28;8.03;;;;;;;21.76;83.17;99648.17;2983565;80;21011;-65
2021/08/05 08:23:16;;;;;;;7.83;7.08;;;;;;;21.96;83.13;99640.48;3089018;76;20980;-64
2021/08/05 08:27:52;;;;;;;8.30;7.50;;;;;;;22.21;82.11;99636.47;3089189;77;20929;-62
2021/08/05 08:31:55;;;;;;;9.45;8.25;;;;;;;22.39;81.23;99637.06;3088928;77;20965;-66
2021/08/05 08:35:58;;;;;;;7.80;7.00;;;;;;;22.60;81.81;99631.02;3089543;77;20989;-63
2021/08/05 08:40:38;;;;;;;7.40;6.70;;;;;;;22.68;81.09;99630.73;2942481;80;20961;-64
2021/08/05 08:45:14;;;;;;;9.53;8.08;;;;;;;22.71;80.24;99631.34;2965177;80;20954;-66
2021/08/05 08:49:51;;;;;;;8.75;7.17;;;;;;;22.75;78.45;99629.83;2937274;81;20992;-64
2021/08/05 08:53:57;;;;;;;6.50;5.75;;;;;;;22.75;78.60;99637.97;2965108;80;20974;-62
2021/08/05 08:58:33;;;;;;;7.58;6.87;;;;;;;22.65;78.31;99633.89;2914857;81;20956;-65
2021/08/05 09:02:36;;;;;;;8.43;6.90;;;;;;;22.67;79.36;99630.43;2911977;80;21000;-62
2021/08/05 09:07:12;;;;;;;6.95;6.22;;;;;;;22.62;77.94;99627.56;2965357;79;20982;-62
2021/08/05 09:11:14;;;;;;;7.05;6.03;;;;;;;22.68;78.35;99635.31;2993479;79;21082;-63
2021/08/05 09:15:33;;;;;;;7.47;6.78;;;;;;;22.73;78.29;99626.52;3023959;76;20988;-64
2021/08/05 09:19:40;;;;;;;8.40;6.30;;;;;;;22.88;78.54;99624.30;2988953;78;20971;-64
2021/08/05 09:24:11;;;;;;;6.87;6.17;;;;;;;22.95;76.96;99626.41;3006096;76;21014;-63
2021/08/05 09:28:16;;;;;;;8.15;6.87;;;;;;;22.96;76.82;99626.70;3012048;76;21002;-66
2021/08/05 09:32:27;;;;;;;8.35;6.75;;;;;;;22.97;76.96;99624.30;3047517;78;20979;-64
2021/08/05 09:36:28;;;;;;;6.05;5.55;;;;;;;22.93;77.37;99618.21;3018931;76;20993;-63
2021/08/05 09:40:31;;;;;;;6.97;6.22;;;;;;;22.90;76.66;99620.83;3020000;76;21019;-65
2021/08/05 09:44:46;;;;;;;11.12;6.78;;;;;;;22.86;75.75;99616.92;3010019;78;21003;-63
2021/08/05 09:48:49;;;;;;;8.40;6.85;;;;;;;22.80;75.91;99621.34;3032427;78;20952;-66
2021/08/05 09:52:51;;;;;;;7.12;6.28;;;;;;;22.78;76.15;99611.25;3048259;78;20952;-64
2021/08/05 09:56:58;;;;;;;9.10;8.03;;;;;;;22.77;76.91;99610.95;3009216;78;20951;-63
2021/08/05 10:01:06;;;;;;;9.73;8.10;;;;;;;22.81;76.49;99600.50;3009982;78;20972;-64
2021/08/05 10:05:16;;;;;;;10.58;7.62;;;;;;;22.81;77.25;99595.89;2913925;81;21313;-63
2021/08/05 10:09:18;;;;;;;8.23;7.37;;;;;;;22.84;76.99;99593.27;2907960;81;21044;-63
2021/08/05 10:13:31;;;;;;;9.38;8.33;;;;;;;22.84;76.35;99594.63;2916950;81;21008;-64
2021/08/05 10:17:36;;;;;;;10.30;8.23;;;;;;;22.84;75.88;99587.84;2915473;81;21039;-66
2021/08/05 10:21:38;;;;;;;11.68;8.58;;;;;;;22.81;75.67;99586.94;2918684;80;20975;-62
2021/08/05 10:25:43;;;;;;;12.18;9.48;;;;;;;22.68;75.93;99585.16;2916779;80;21025;-62
2021/08/05 10:29:46;;;;;;;12.60;10.70;;;;;;;22.58;76.93;99588.92;2907333;81;21019;-62
2021/08/05 10:33:48;;;;;;;10.43;9.03;;;;;;;22.47;77.58;99587.77;2907968;81;21051;-63
2021/08/05 10:37:51;;;;;;;11.00;9.60;;;;;;;22.34;78.46;99585.43;2897814;81;21070;-65
2021/08/05 10:41:53;;;;;;;12.25;10.95;;;;;;;22.35;78.90;99572.73;2897325;81;21027;-64
2021/08/05 10:45:56;;;;;;;7.87;7.08;;;;;;;22.40;79.05;99575.09;3004099;78;20983;-63
2021/08/05 10:50:13;;;;;;;10.18;9.18;;;;;;;22.47;77.21;99579.64;3020241;76;20936;-66
2021/08/05 10:54:40;;;;;;;22.27;10.05;;;;;;;22.36;77.08;99581.97;3021240;76;21022;-68
2021/08/05 10:59:13;;;;;;;7.62;6.92;;;;;;;22.43;78.04;99568.92;3023979;76;21007;-65
2021/08/05 11:03:38;;;;;;;8.73;7.70;;;;;;;22.43;75.69;99574.34;3045260;78;20960;-67
2021/08/05 11:07:44;;;;;;;7.15;6.33;;;;;;;22.44;76.16;99572.73;3016820;78;21038;-64
2021/08/05 11:11:45;;;;;;;8.57;7.63;;;;;;;22.42;76.08;99569.42;3055836;78;20972;-65
2021/08/05 11:15:48;;;;;;;11.88;7.72;;;;;;;22.39;76.43;99569.88;3033072;76;20952;-63
2021/08/05 11:20:15;;;;;;;10.70;9.53;;;;;;;22.30;76.68;99564.41;3028550;76;21023;-64
2021/08/05 11:24:45;;;;;;;9.70;8.68;;;;;;;22.22;77.79;99567.71;2991612;76;20964;-63
2021/08/05 11:28:53;;;;;;;12.55;8.93;;;;;;;22.11;78.87;99565.19;3034178;76;20972;-64
2021/08/05 11:32:55;;;;;;;12.55;10.53;;;;;;;22.03;79.83;99555.99;3025082;76;21054;-62
2021/08/05 11:37:02;;;;;;;11.68;10.45;;;;;;;21.88;81.40;99558.17;3018644;76;21022;-62
2021/08/05 11:41:06;;;;;;;10.20;9.10;;;;;;;21.74;83.35;99555.54;3029080;76;20976;-62
2021/08/05 11:45:10;;;;;;;10.23;8.98;;;;;;;21.67;83.88;99548.00;3040168;76;20963;-62
2021/08/05 11:49:41;;;;;;;9.10;8.20;;;;;;;21.58;82.73;99531.66;3015393;77;21042;-62
2021/08/05 11:53:43;;;;;;;10.32;9.08;;;;;;;21.55;83.65;99527.53;3014711;76;21028;-62
2021/08/05 11:57:53;;;;;;;10.58;8.30;;;;;;;21.53;84.57;99522.33;3022924;76;21026;-63
2021/08/05 12:02:17;;;;;;;10.25;9.20;;;;;;;21.49;84.47;99521.11;3032412;76;21019;-62
2021/08/05 12:06:24;;;;;;;10.90;9.80;;;;;;;21.43;85.34;99520.63;3018673;76;21502;-62
2021/08/05 12:10:28;;;;;;;12.10;10.63;;;;;;;21.35;86.22;99514.09;3019313;76;21062;-63
2021/08/05 12:14:30;;;;;;;12.25;10.88;;;;;;;21.38;86.82;99517.21;3028533;76;20981;-64
2021/08/05 12:18:38;;;;;;;12.03;10.72;;;;;;;21.42;87.68;99510.86;3025119;76;20960;-63
2021/08/05 12:22:44;;;;;;;11.30;9.30;;;;;;;21.48;87.92;99509.98;3025242;76;20959;-62
2021/08/05 12:26:59;;;;;;;12.00;10.65;;;;;;;21.47;87.75;99509.67;3034826;76;20985;-65
2021/08/05 12:31:05;;;;;;;10.83;9.73;;;;;;;21.42;87.37;99511.36;3005749;76;21011;-65
2021/08/05 12:35:12;;;;;;;12.20;11.00;;;;;;;21.35;86.90;99503.28;3015349;78;20960;-63
2021/08/05 12:39:18;;;;;;;11.70;10.40;;;;;;;21.33;87.52;99499.97;3017070;76;20940;-60
2021/08/05 12:43:24;;;;;;;10.60;9.25;;;;;;;21.32;86.82;99494.25;3016352;76;21007;-62
2021/08/05 12:47:27;;;;;;;11.45;10.38;;;;;;;21.30;87.65;99482.83;3016068;76;21071;-59
2021/08/05 12:51:31;;;;;;;17.62;13.45;;;;;;;21.28;88.05;99468.69;3003944;77;20932;-60
2021/08/05 12:55:53;;;;;;;14.90;12.47;;;;;;;21.26;88.91;99465.68;3001321;77;21019;-61
2021/08/05 12:59:57;;;;;;;13.78;12.45;;;;;;;21.29;89.20;99465.75;3001948;77;20967;-61
2021/08/05 13:03:59;;;;;;;16.45;14.43;;;;;;;21.34;89.12;99465.11;3019172;77;20977;-63
2021/08/05 13:08:01;;;;;;;16.40;14.65;;;;;;;21.32;88.78;99459.09;2997148;78;20952;-66
2021/08/05 13:12:24;;;;;;;18.90;13.15;;;;;;;21.25;88.32;99461.31;2993626;77;21027;-66
2021/08/05 13:16:34;;;;;;;13.88;12.60;;;;;;;21.18;88.78;99463.20;2988785;78;20972;-65
2021/08/05 13:20:36;;;;;;;20.55;14.13;;;;;;;21.13;89.38;99458.98;2980781;78;20992;-63
2021/08/05 13:24:38;;;;;;;17.25;15.53;;;;;;;21.10;90.59;99448.06;2980623;78;20999;-65
2021/08/05 13:28:40;;;;;;;15.60;13.88;;;;;;;21.14;91.19;99452.52;2980942;80;20959;-63
2021/08/05 13:32:44;;;;;;;14.33;12.85;;;;;;;21.18;91.57;99453.74;2983393;78;21003;-65
2021/08/05 13:36:48;;;;;;;15.88;14.30;;;;;;;21.20;91.64;99458.41;3002885;77;20965;-67
2021/08/05 13:40:56;;;;;;;16.67;14.38;;;;;;;21.21;91.29;99465.47;3003523;76;21015;-67
2021/08/05 13:44:58;;;;;;;16.52;14.83;;;;;;;21.14;90.78;99452.52;3024839;76;21615;-63
2021/08/05 13:49:01;;;;;;;20.27;14.18;;;;;;;21.08;91.55;99453.39;3029004;76;20995;-65
2021/08/05 13:53:06;;;;;;;15.13;13.50;;;;;;;21.00;91.96;99453.12;2935683;79;21042;-61
2021/08/05 13:57:12;;;;;;;16.48;14.75;;;;;;;20.94;92.16;99452.09;3025214;76;21469;-64
2021/08/05 14:01:16;;;;;;;13.62;12.23;;;;;;;20.82;92.83;99451.09;3048969;77;21018;-66
2021/08/05 14:05:20;;;;;;;12.53;10.78;;;;;;;20.63;91.16;99457.67;3062962;77;20956;-66
2021/08/05 14:09:22;;;;;;;13.60;12.23;;;;;;;20.33;91.61;99458.17;3045102;76;21066;-69
2021/08/05 14:13:24;;;;;;;14.45;12.88;;;;;;;20.05;92.75;99456.56;3034445;76;20999;-68
2021/08/05 14:17:26;;;;;;;13.32;11.90;;;;;;;19.84;94.45;99446.77;2978891;79;21480;-67
2021/08/05 14:21:27;;;;;;;14.35;12.85;;;;;;;19.69;95.32;99446.44;3008900;79;20959;-67
2021/08/05 14:25:30;;;;;;;16.45;13.48;;;;;;;19.65;96.28;99444.34;3008995;79;20971;-65
2021/08/05 14:29:33;;;;;;;16.32;14.60;;;;;;;19.63;96.42;99442.38;3009325;79;21007;-63
2021/08/05 14:33:36;;;;;;;15.75;14.15;;;;;;;19.63;97.10;99445.92;3009515;79;20955;-64
2021/08/05 14:37:39;;;;;;;26.57;16.60;;;;;;;19.63;97.49;99447.77;3009627;79;20979;-62
2021/08/05 14:41:40;;;;;;;16.42;14.60;;;;;;;19.69;98.03;99445.08;3009290;79;20979;-62
2021/08/05 14:45:43;;;;;;;17.42;15.72;;;;;;;19.72;97.66;99451.10;3009326;79;20994;-64
2021/08/05 14:49:44;;;;;;;18.23;16.42;;;;;;;19.76;98.03;99442.39;3009549;79;20983;-62
2021/08/05 14:53:46;;;;;;;20.32;17.40;;;;;;;19.81;98.10;99439.08;3009680;79;21010;-63
2021/08/05 14:57:48;;;;;;;18.00;15.25;;;;;;;19.84;97.55;99446.22;3009684;79;21445;-63
2021/08/05 15:01:50;;;;;;;22.35;17.10;;;;;;;19.86;97.46;99446.03;3009539;79;20951;-62
2021/08/05 15:05:52;;;;;;;17.57;15.70;;;;;;;19.91;97.76;99443.56;3009842;79;20983;-65
2021/08/05 15:09:54;;;;;;;21.15;17.60;;;;;;;19.98;98.35;99442.22;3010049;79;21038;-61
2021/08/05 15:13:55;;;;;;;16.35;14.07;;;;;;;20.07;98.58;99445.03;3010401;79;20998;-63
2021/08/05 15:17:57;;;;;;;17.90;15.93;;;;;;;20.14;97.80;99441.48;2979682;79;21468;-62
2021/08/05 15:21:59;;;;;;;20.27;16.57;;;;;;;20.19;98.66;99443.88;2977697;80;20974;-64
2021/08/05 15:26:02;;;;;;;18.48;15.98;;;;;;;20.22;98.66;99446.14;2978075;79;20991;-62
2021/08/05 15:30:07;;;;;;;17.85;15.63;;;;;;;20.26;98.27;99444.68;2977511;80;21022;-60
2021/08/05 15:34:09;;;;;;;22.52;17.92;;;;;;;20.28;99.00;99445.83;2978067;79;20950;-61
2021/08/05 15:38:14;;;;;;;18.40;16.07;;;;;;;20.33;99.33;99443.83;2977991;80;20938;-61
2021/08/05 15:42:16;;;;;;;18.90;16.80;;;;;;;20.32;99.20;99448.41;3011292;76;20962;-62
2021/08/05 15:46:17;;;;;;;18.57;16.60;;;;;;;20.34;99.43;99444.98;3037701;78;20959;-62
2021/08/05 15:50:19;;;;;;;18.77;16.85;;;;;;;20.31;98.81;99444.56;3037616;78;20994;-60
2021/08/05 15:54:21;;;;;;;18.87;16.97;;;;;;;20.29;98.87;99447.99;3038027;78;21041;-61
2021/08/05 15:58:27;;;;;;;16.42;14.13;;;;;;;20.26;98.67;99437.11;3042074;78;20967;-62
2021/08/05 16:02:28;;;;;;;14.85;13.13;;;;;;;20.18;97.91;99445.42;2954281;79;20990;-62
2021/08/05 16:06:33;;;;;;;21.10;14.03;;;;;;;20.07;97.25;99440.98;3041882;78;20966;-62
2021/08/05 16:10:37;;;;;;;16.57;13.10;;;;;;;19.94;97.46;99435.05;3042046;78;21535;-61
2021/08/05 16:14:38;;;;;;;18.95;13.20;;;;;;;19.84;97.84;99435.43;2919761;80;21044;-61
2021/08/05 16:18:40;;;;;;;14.85;11.53;;;;;;;19.76;97.99;99435.65;2917656;81;20968;-64
2021/08/05 16:22:43;;;;;;;13.85;10.98;;;;;;;19.65;97.75;99433.55;2917354;81;20989;-63
2021/08/05 16:26:51;;;;;;;12.75;10.25;;;;;;;19.55;97.79;99445.59;2906853;81;21020;-61
2021/08/05 16:30:53;;;;;;;9.80;8.73;;;;;;;19.48;97.41;99435.33;2895113;81;20980;-63
2021/08/05 16:34:56;;;;;;;11.53;10.20;;;;;;;19.39;97.12;99431.99;3037193;78;36684;-63
2021/08/05 16:38:59;;;;;;;12.58;9.65;;;;;;;19.34;97.24;99443.89;3030153;78;20976;-62
2021/08/05 16:43:01;;;;;;;12.28;9.28;;;;;;;19.29;96.59;99440.98;3005968;78;21327;-63
2021/08/05 16:47:04;;;;;;;14.03;8.93;;;;;;;19.20;96.23;99441.68;3004659;78;21015;-64
2021/08/05 16:51:06;;;;;;;11.97;7.50;;;;;;;19.15;96.22;99433.88;3005985;78;21000;-64
2021/08/05 16:55:09;;;;;;;9.20;8.38;;;;;;;19.09;96.09;99436.90;2993885;77;20975;-64
2021/08/05 16:59:11;;;;;;;11.05;8.88;;;;;;;19.05;96.44;99444.55;2994515;77;20967;-64
2021/08/05 17:03:13;;;;;;;10.00;9.00;;;;;;;19.05;97.05;99441.01;3026772;78;21022;-63
2021/08/05 17:07:15;;;;;;;9.93;8.93;;;;;;;19.03;97.13;99437.69;3009757;78;21046;-64
2021/08/05 17:11:18;;;;;;;9.25;8.28;;;;;;;19.03;97.81;99430.95;2989706;77;21023;-66
2021/08/05 17:15:20;;;;;;;9.53;8.48;;;;;;;19.04;97.96;99433.95;3012938;77;21030;-64
2021/08/05 17:19:27;;;;;;;9.38;8.48;;;;;;;19.03;97.94;99430.45;2954108;78;20971;-66
2021/08/05 17:23:29;;;;;;;9.58;8.60;;;;;;;19.01;97.70;99431.17;2992945;77;20968;-64
2021/08/05 17:27:36;;;;;;;14.47;9.63;;;;;;;18.98;97.64;99427.00;3005968;78;20953;-66
2021/08/05 17:31:38;;;;;;;8.65;7.83;;;;;;;18.98;97.82;99426.16;3034627;78;20964;-65
2021/08/05 17:35:40;;;;;;;6.22;5.62;;;;;;;18.92;97.41;99425.09;2999938;77;21032;-64
2021/08/05 17:39:47;;;;;;;9.18;7.65;;;;;;;18.85;95.81;99422.88;3008063;77;20964;-63
2021/08/05 17:43:50;;;;;;;7.90;6.17;;;;;;;18.77;95.58;99423.06;3004536;77;20971;-64
2021/08/05 17:47:54;;;;;;;9.30;7.72;;;;;;;18.69;95.21;99430.80;3045211;76;21042;-64
2021/08/05 17:51:57;;;;;;;8.90;7.33;;;;;;;18.61;95.68;99429.09;3035704;76;20976;-63
2021/08/05 17:56:01;;;;;;;7.30;6.60;;;;;;;18.58;96.03;99433.54;3040797;76;20959;-64
2021/08/05 18:00:06;;;;;;;8.75;7.15;;;;;;;18.54;95.72;99429.59;3008677;79;21538;-63
2021/08/05 18:04:10;;;;;;;6.20;5.53;;;;;;;18.47;95.76;99422.81;3040858;76;21004;-63
2021/08/05 18:08:11;;;;;;;9.30;6.05;;;;;;;18.40;95.33;99429.50;3041443;77;21612;-62
2021/08/05 18:12:15;;;;;;;5.60;5.10;;;;;;;18.31;94.76;99423.98;3024437;76;21082;-63
2021/08/05 18:16:17;;;;;;;12.10;9.10;;;;;;;18.25;94.84;99426.94;3039747;77;20951;-62
2021/08/05 18:20:19;;;;;;;11.25;7.37;;;;;;;18.22;95.49;99422.45;2994084;78;21488;-61
2021/08/05 18:24:21;;;;;;;9.70;5.08;;;;;;;18.20;95.65;99421.83;3060139;77;21022;-62
2021/08/05 18:28:23;;;;;;;9.25;6.58;;;;;;;18.18;95.75;99413.12;3020205;76;20948;-62
2021/08/05 18:32:24;;;;;;;7.75;5.97;;;;;;;18.15;95.60;99407.61;3028508;76;20998;-63
2021/08/05 18:36:27;;;;;;;6.20;5.50;;;;;;;18.10;95.12;99408.22;3017925;77;20956;-62
2021/08/05 18:40:31;;;;;;;9.78;5.85;;;;;;;18.06;95.44;99411.48;3010122;77;20928;-62
2021/08/05 18:44:35;;;;;;;9.63;6.45;;;;;;;18.02;95.35;99408.88;2905305;81;20957;-63
2021/08/05 18:48:39;;;;;;;9.03;5.53;;;;;;;17.96;95.32;99411.27;3050267;76;20960;-63
2021/08/05 18:52:47;;;;;;;8.30;4.80;;;;;;;17.95;95.81;99414.99;3018830;76;20970;-62
2021/08/05 18:56:53;;;;;;;10.28;4.95;;;;;;;17.96;96.16;99409.92;3030704;76;21030;-63
2021/08/05 19:00:55;;;;;;;9.50;4.40;;;;;;;17.97;96.52;99406.73;3016751;77;21529;-61
2021/08/05 19:04:59;;;;;;;7.87;4.15;;;;;;;18.02;96.09;99400.81;3046230;76;20978;-63
2021/08/05 19:09:04;;;;;;;6.92;6.15;;;;;;;17.97;95.35;99400.02;3034767;77;21051;-61